»·PEaware :: N2102W KVNY-KSBA

N2102W :: KVNY-KSBA

FLIGHT INFORMATION

Flight Status: Arrived
Operator: Privately registered:
United States
More flights under this callsign
Pilot: Eric G. (5941)
Aircraft: BEECH AIRCRAFT PREMIER
(PRM1)
More flights by this aircraft type
Origin: KVNY Van Nuys
United States
Destination: KSBA Santa Barbara Mun
United States
More flights between these airports :: More routes between these airports
Route: +CANOGA2 FIM BURP39
File this flight plan on PilotEdge
Remarks:
Altitude:
(Current/Filed)
12,000ft
Speed:
(Current/Filed)
300kts
Departed: 02-Sep-18 07:28 AM
Arrived: 02-Sep-18 07:57 AM
Distance/Time
Traveled:
68nm/0:29
Distance/Time
To Go:
Arrived

Flight Plot

Page will automatically refresh every two minutes.

Flight plan parsing failed; only flown route is shown


Map Options




Map Legend


Flown Route
Filed Route
Departure Airport
Arrival Airport
Navaid (VOR, NDB)
Fix

Horizontal Profiles

Position Reports

Time Latitude Longitude Heading Altitude Ground
Speed
02-Sep-18 06:56 34.216666 -118.488929 7 807ft 0kts
02-Sep-18 06:57 34.216666 -118.488929 7 807ft 0kts
02-Sep-18 06:58 34.216666 -118.488929 7 807ft 0kts
02-Sep-18 06:59 34.216666 -118.488929 7 807ft 0kts
02-Sep-18 07:01 34.216666 -118.488929 7 807ft 0kts
02-Sep-18 07:02 34.216667 -118.488928 7 807ft 0kts
02-Sep-18 07:03 34.216670 -118.488928 7 807ft 0kts
02-Sep-18 07:04 34.216673 -118.488927 7 807ft 0kts
02-Sep-18 07:05 34.216691 -118.488924 8 807ft 0kts
02-Sep-18 07:06 34.216691 -118.488924 8 807ft 0kts
02-Sep-18 07:07 34.216691 -118.488924 8 807ft 0kts
02-Sep-18 07:08 34.216691 -118.488924 8 807ft 0kts
02-Sep-18 07:09 34.216691 -118.488924 8 807ft 0kts
02-Sep-18 07:10 34.216691 -118.488924 8 807ft 0kts
02-Sep-18 07:11 34.216693 -118.488924 8 807ft 0kts
02-Sep-18 07:12 34.216694 -118.488924 8 807ft 0kts
02-Sep-18 07:13 34.216696 -118.488923 8 807ft 0kts
02-Sep-18 07:14 34.216698 -118.488923 8 807ft 0kts
02-Sep-18 07:15 34.216700 -118.488923 8 807ft 0kts
02-Sep-18 07:16 34.216801 -118.488974 306 807ft 4kts
02-Sep-18 07:17 34.216795 -118.488934 273 807ft 0kts
02-Sep-18 07:18 34.216795 -118.488936 273 807ft 0kts
02-Sep-18 07:19 34.216795 -118.488939 273 807ft 0kts
02-Sep-18 07:20 34.216795 -118.488941 273 807ft 0kts
02-Sep-18 07:21 34.216795 -118.488943 273 807ft 0kts
02-Sep-18 07:22 34.217363 -118.489396 357 807ft 7kts
02-Sep-18 07:23 34.218861 -118.490501 265 807ft 2kts
02-Sep-18 07:24 34.218860 -118.490512 265 807ft 0kts
02-Sep-18 07:25 34.218860 -118.490514 265 807ft 0kts
02-Sep-18 07:26 34.218860 -118.490516 265 807ft 0kts
02-Sep-18 07:27 34.218860 -118.490518 265 807ft 0kts
02-Sep-18 07:28 34.218860 -118.490521 265 807ft 0kts
02-Sep-18 07:29 34.218672 -118.491234 170 807ft 0kts
02-Sep-18 07:30 34.196795 -118.489468 175 1466ft 162kts
02-Sep-18 07:31 34.143766 -118.512729 229 3307ft 232kts
02-Sep-18 07:32 34.110665 -118.568951 274 5072ft 220kts
02-Sep-18 07:33 34.116250 -118.644137 274 5973ft 236kts
02-Sep-18 07:34 34.136799 -118.718889 293 5989ft 244kts
02-Sep-18 07:35 34.157944 -118.785964 287 5984ft 234kts
02-Sep-18 07:36 34.173549 -118.858242 285 5992ft 244kts
02-Sep-18 07:37 34.188823 -118.930362 285 6004ft 243kts
02-Sep-18 07:37 34.202864 -118.996237 286 5998ft 239kts
02-Sep-18 07:38 34.218423 -119.070088 285 4829ft 224kts
02-Sep-18 07:39 34.235220 -119.144824 285 4007ft 235kts
02-Sep-18 07:41 34.256095 -119.235758 285 3999ft 242kts
02-Sep-18 07:41 34.271002 -119.300769 285 4000ft 240kts
02-Sep-18 07:42 34.279958 -119.382350 272 4005ft 252kts
02-Sep-18 07:43 34.283210 -119.466199 272 4005ft 247kts
02-Sep-18 07:44 34.286439 -119.548693 273 4006ft 244kts
02-Sep-18 07:45 34.289379 -119.624098 272 4005ft 243kts
02-Sep-18 07:46 34.292680 -119.706138 273 4003ft 244kts
02-Sep-18 07:47 34.295991 -119.788022 273 4001ft 244kts
02-Sep-18 07:48 34.299318 -119.869931 273 4001ft 244kts
02-Sep-18 07:49 34.302369 -119.944699 273 4004ft 244kts
02-Sep-18 07:50 34.305722 -120.026527 273 4005ft 244kts
02-Sep-18 07:51 34.326636 -120.094041 342 4009ft 216kts
02-Sep-18 07:52 34.383404 -120.098819 14 4029ft 197kts
02-Sep-18 07:53 34.419821 -120.055943 54 3275ft 191kts
02-Sep-18 07:54 34.427448 -120.001139 90 2013ft 127kts
02-Sep-18 07:55 34.425356 -119.957131 90 1945ft 125kts
02-Sep-18 07:56 34.426994 -119.913639 87 1092ft 136kts
02-Sep-18 07:57 34.427189 -119.870491 88 300ft 124kts
02-Sep-18 07:58 34.427826 -119.839701 79 15ft 24kts
02-Sep-18 07:59 34.427101 -119.838467 168 15ft 0kts
02-Sep-18 08:00 34.424634 -119.837186 86 15ft 7kts
02-Sep-18 08:01 34.424497 -119.836953 122 15ft 0kts
02-Sep-18 08:02 34.424497 -119.836953 122 15ft 0kts
02-Sep-18 08:03 34.424497 -119.836953 122 15ft 0kts

Navigation Log

Ident Type
Flight plan parsing failed, navigation log unavailable